Time;durP1;ratioP1;P1;durP2;ratioP2;P2;SDS_P1;SDS_P2;PMS_P1;PMS_P2;Temp;Humidity;BMP_temperature;BMP_pressure;BME280_temperature;BME280_humidity;BME280_pressure;Samples;Min_cycle;Max_cycle;Signal;HPM_P1;HPM_P2
2021/07/06 00:00:39;;;;;;;1.73;1.07;;;20.60;99.90;;;;;;5031233;28;20448;-79
2021/07/06 00:03:08;;;;;;;1.40;0.90;;;20.60;99.90;;;;;;5032228;28;20468;-78
2021/07/06 00:05:36;;;;;;;1.10;1.00;;;20.70;99.90;;;;;;5028953;28;20516;-79
2021/07/06 00:08:05;;;;;;;1.23;1.13;;;20.60;99.90;;;;;;5026935;28;20831;-79
2021/07/06 00:10:35;;;;;;;2.10;0.90;;;20.60;99.90;;;;;;5029886;28;20510;-79
2021/07/06 00:13:04;;;;;;;1.10;1.00;;;20.60;99.90;;;;;;5031834;28;20491;-77
2021/07/06 00:15:34;;;;;;;1.07;0.97;;;20.50;99.90;;;;;;5030221;28;20455;-79
2021/07/06 00:18:03;;;;;;;0.97;0.90;;;20.40;99.90;;;;;;5031732;28;20491;-78
2021/07/06 00:20:31;;;;;;;1.17;1.07;;;20.40;99.90;;;;;;5030281;28;20452;-79
2021/07/06 00:23:03;;;;;;;1.20;1.10;;;20.30;99.90;;;;;;5031926;28;20522;-78
2021/07/06 00:25:34;;;;;;;2.50;1.30;;;20.30;99.90;;;;;;5031352;28;20855;-77
2021/07/06 00:28:02;;;;;;;1.47;1.27;;;20.30;99.90;;;;;;5030692;28;20885;-79
2021/07/06 00:30:30;;;;;;;2.10;1.00;;;20.20;99.90;;;;;;5027347;28;20518;-80
2021/07/06 00:32:58;;;;;;;1.43;1.17;;;20.10;99.90;;;;;;5027606;28;20819;-79
2021/07/06 00:35:26;;;;;;;2.43;0.90;;;20.10;99.90;;;;;;5025626;28;20456;-78
2021/07/06 00:37:55;;;;;;;1.70;1.03;;;20.10;99.90;;;;;;5031290;28;20985;-78
2021/07/06 00:40:23;;;;;;;1.20;1.10;;;20.00;99.90;;;;;;5030694;28;20458;-79
2021/07/06 00:42:58;;;;;;;2.30;0.90;;;20.00;1.00;;;;;;5031387;28;20464;-78
2021/07/06 00:45:28;;;;;;;1.30;1.20;;;20.00;1.00;;;;;;5030079;28;20482;-78
2021/07/06 00:47:59;;;;;;;1.10;0.90;;;20.00;1.00;;;;;;5030341;28;20952;-79
2021/07/06 00:50:29;;;;;;;1.20;1.10;;;20.10;1.00;;;;;;5029060;28;21333;-78
2021/07/06 00:52:57;;;;;;;1.00;0.90;;;20.10;1.00;;;;;;5028861;28;20471;-80
2021/07/06 00:55:25;;;;;;;1.43;0.90;;;20.20;1.00;;;;;;5030765;28;20494;-78
2021/07/06 00:57:55;;;;;;;1.20;1.10;;;20.10;99.90;;;;;;5029331;28;20489;-78
2021/07/06 01:00:25;;;;;;;2.47;1.00;;;20.20;99.90;;;;;;5029558;28;20456;-79
2021/07/06 01:02:54;;;;;;;1.30;1.20;;;20.10;99.90;;;;;;5027019;28;20474;-78
2021/07/06 01:05:24;;;;;;;0.80;0.80;;;20.10;1.00;;;;;;5028918;28;20468;-78
2021/07/06 01:07:52;;;;;;;1.20;1.13;;;20.20;1.00;;;;;;5029641;28;20574;-78
2021/07/06 01:10:21;;;;;;;1.77;1.67;;;20.10;1.00;;;;;;5029010;28;20831;-80
2021/07/06 01:12:52;;;;;;;0.90;0.90;;;20.20;1.00;;;;;;5030020;28;20482;-78
2021/07/06 01:15:24;;;;;;;1.77;1.20;;;20.20;1.00;;;;;;5018133;28;20445;-79
2021/07/06 01:17:59;;;;;;;1.20;1.10;;;20.20;99.90;;;;;;5029515;28;20861;-79
2021/07/06 01:20:29;;;;;;;2.83;1.10;;;20.20;99.90;;;;;;5028475;28;20538;-78
2021/07/06 01:22:59;;;;;;;1.37;1.20;;;20.10;99.90;;;;;;5028929;28;20510;-80
2021/07/06 01:25:28;;;;;;;1.70;1.13;;;20.10;99.90;;;;;;5031032;28;20471;-78
2021/07/06 01:28:00;;;;;;;0.80;0.80;;;20.10;99.90;;;;;;5029733;28;20452;-80
2021/07/06 01:30:28;;;;;;;1.43;0.90;;;20.00;99.90;;;;;;5028775;28;20915;-79
2021/07/06 01:32:57;;;;;;;1.53;1.17;;;20.10;1.00;;;;;;5024226;28;20471;-78
2021/07/06 01:35:26;;;;;;;3.97;1.20;;;20.00;99.90;;;;;;5029758;28;20464;-80
2021/07/06 01:37:56;;;;;;;1.00;1.00;;;20.00;99.90;;;;;;5029548;28;20476;-78
2021/07/06 01:40:27;;;;;;;1.00;1.00;;;20.00;99.90;;;;;;5029815;28;20443;-80
2021/07/06 01:42:56;;;;;;;1.93;1.13;;;20.00;99.90;;;;;;5028781;28;20471;-80
2021/07/06 01:45:26;;;;;;;1.30;1.20;;;19.90;1.00;;;;;;5031851;28;20846;-79
2021/07/06 01:47:56;;;;;;;1.23;1.13;;;19.90;99.90;;;;;;5029535;28;20456;-79
2021/07/06 01:50:27;;;;;;;1.57;1.20;;;19.90;1.00;;;;;;5016330;28;20949;-79
2021/07/06 01:52:58;;;;;;;2.27;1.13;;;19.90;1.00;;;;;;5027252;28;20479;-78
2021/07/06 01:55:30;;;;;;;1.50;1.40;;;19.90;1.00;;;;;;5029525;28;20451;-78
2021/07/06 01:58:00;;;;;;;1.20;1.10;;;19.80;1.00;;;;;;5022131;28;20480;-81
2021/07/06 02:00:30;;;;;;;1.40;1.10;;;19.80;1.00;;;;;;5021848;28;20470;-80
2021/07/06 02:02:59;;;;;;;1.30;1.20;;;19.80;1.00;;;;;;5010007;28;20496;-79
2021/07/06 02:05:31;;;;;;;1.30;1.00;;;19.70;1.00;;;;;;5023431;28;20945;-79
2021/07/06 02:08:00;;;;;;;1.23;1.13;;;19.70;1.00;;;;;;5027901;28;21323;-80
2021/07/06 02:10:29;;;;;;;1.40;1.20;;;19.70;1.00;;;;;;5028724;28;20503;-81
2021/07/06 02:12:59;;;;;;;1.27;1.17;;;19.60;1.00;;;;;;5024591;28;20483;-80
2021/07/06 02:15:29;;;;;;;1.20;1.00;;;19.60;1.00;;;;;;5028082;28;20968;-79
2021/07/06 02:17:57;;;;;;;1.10;1.00;;;19.50;1.00;;;;;;5028238;28;20532;-79
2021/07/06 02:20:25;;;;;;;1.30;1.00;;;19.50;1.00;;;;;;5029314;28;21019;-79
2021/07/06 02:22:54;;;;;;;1.03;0.93;;;19.50;1.00;;;;;;5029463;28;20487;-77
2021/07/06 02:25:22;;;;;;;1.00;1.00;;;19.50;1.00;;;;;;5029521;28;20459;-79
2021/07/06 02:27:53;;;;;;;2.07;1.00;;;19.50;1.00;;;;;;5028860;28;20440;-79
2021/07/06 02:30:23;;;;;;;1.63;1.07;;;19.50;1.00;;;;;;5029905;28;20887;-81
2021/07/06 02:32:53;;;;;;;1.40;1.30;;;19.40;1.00;;;;;;5028320;28;20479;-78
2021/07/06 02:35:26;;;;;;;1.80;1.17;;;19.40;1.00;;;;;;5014094;28;20919;-80
2021/07/06 02:37:57;;;;;;;1.10;1.00;;;19.40;1.00;;;;;;5029529;28;20987;-78
2021/07/06 02:40:26;;;;;;;1.30;1.20;;;19.40;1.00;;;;;;5029587;28;20536;-80
2021/07/06 02:42:55;;;;;;;1.00;1.00;;;19.30;1.00;;;;;;5032996;28;20542;-80
2021/07/06 02:45:24;;;;;;;1.47;1.10;;;19.30;1.00;;;;;;5031911;28;20831;-79
2021/07/06 02:47:53;;;;;;;1.30;1.20;;;19.30;1.00;;;;;;5034977;28;20967;-78
2021/07/06 02:50:22;;;;;;;1.00;1.00;;;19.30;1.00;;;;;;5031228;28;20462;-79
2021/07/06 02:52:51;;;;;;;1.57;1.20;;;19.20;1.00;;;;;;5029505;28;20474;-79
2021/07/06 02:55:19;;;;;;;1.17;1.07;;;19.20;1.00;;;;;;5031352;28;20451;-79
2021/07/06 02:57:52;;;;;;;1.20;1.10;;;19.20;1.00;;;;;;5025192;28;20477;-80
2021/07/06 03:00:23;;;;;;;1.17;1.00;;;19.20;1.00;;;;;;5030582;28;20462;-80
2021/07/06 03:02:54;;;;;;;1.00;1.00;;;19.20;1.00;;;;;;5032357;28;20486;-80
2021/07/06 03:05:24;;;;;;;1.37;1.27;;;19.20;1.00;;;;;;5030314;28;20451;-78
2021/07/06 03:07:53;;;;;;;1.10;1.00;;;19.20;1.00;;;;;;5033253;28;20532;-81
2021/07/06 03:10:23;;;;;;;1.20;1.10;;;19.20;1.00;;;;;;5031298;28;20974;-80
2021/07/06 03:12:52;;;;;;;2.27;1.40;;;19.20;4.50;;;;;;5032043;28;20475;-79
2021/07/06 03:15:24;;;;;;;1.37;1.27;;;19.10;1.00;;;;;;5030012;28;20535;-79
2021/07/06 03:17:52;;;;;;;2.27;1.50;;;19.10;9.10;;;;;;5027747;28;20447;-78
2021/07/06 03:20:24;;;;;;;1.30;1.20;;;19.10;19.50;;;;;;5033507;28;20474;-79
2021/07/06 03:22:52;;;;;;;1.30;1.20;;;19.10;47.10;;;;;;5020162;28;20478;-79
2021/07/06 03:25:22;;;;;;;1.50;1.40;;;19.10;57.20;;;;;;5024007;28;20464;-80
2021/07/06 03:27:51;;;;;;;1.77;1.50;;;19.10;49.80;;;;;;5024790;28;20450;-80
2021/07/06 03:30:22;;;;;;;3.43;1.40;;;19.10;11.40;;;;;;5030032;28;20823;-79
2021/07/06 03:32:53;;;;;;;1.43;1.33;;;19.10;33.90;;;;;;5027924;28;20472;-79
2021/07/06 03:35:21;;;;;;;2.20;2.07;;;19.10;31.90;;;;;;5026475;28;20475;-80
2021/07/06 03:37:50;;;;;;;1.80;1.43;;;19.10;78.40;;;;;;5029773;28;20512;-79
2021/07/06 03:40:19;;;;;;;1.20;1.10;;;19.10;76.30;;;;;;5031767;28;20486;-80
2021/07/06 03:42:49;;;;;;;1.10;1.00;;;19.10;32.90;;;;;;5031855;28;20528;-80
2021/07/06 03:45:18;;;;;;;1.00;1.00;;;19.10;44.70;;;;;;5032505;28;20462;-79
2021/07/06 03:47:48;;;;;;;1.10;1.00;;;19.10;16.80;;;;;;5032952;28;20463;-79
2021/07/06 03:50:21;;;;;;;0.87;0.87;;;19.10;24.40;;;;;;5031207;28;20458;-79
2021/07/06 03:52:51;;;;;;;1.67;1.20;;;19.10;58.60;;;;;;5029399;28;20468;-78
2021/07/06 03:55:19;;;;;;;1.20;1.10;;;19.10;54.00;;;;;;5031899;28;20448;-77
2021/07/06 03:57:48;;;;;;;3.67;1.10;;;19.10;69.00;;;;;;5032158;28;20462;-81
2021/07/06 04:00:19;;;;;;;1.00;1.00;;;19.10;19.60;;;;;;5029312;28;21042;-78
2021/07/06 04:02:49;;;;;;;1.40;1.30;;;19.10;23.00;;;;;;5032008;28;21102;-79
2021/07/06 04:05:17;;;;;;;1.40;1.20;;;19.10;55.40;;;;;;5027704;28;20473;-79
2021/07/06 04:07:46;;;;;;;1.23;1.13;;;19.10;34.40;;;;;;5029712;28;20455;-78
2021/07/06 04:10:17;;;;;;;1.40;1.30;;;19.10;39.80;;;;;;5030521;28;20444;-78
2021/07/06 04:12:46;;;;;;;1.50;1.30;;;19.10;41.30;;;;;;5022899;28;21025;-80
2021/07/06 04:15:15;;;;;;;1.53;1.10;;;19.10;84.00;;;;;;5030675;28;20487;-78
2021/07/06 04:17:43;;;;;;;1.30;0.93;;;19.10;99.90;;;;;;5027828;28;21233;-77
2021/07/06 04:20:15;;;;;;;1.30;1.10;;;19.10;99.90;;;;;;5031991;28;20484;-79
2021/07/06 04:22:44;;;;;;;1.93;1.67;;;19.10;99.90;;;;;;5030059;28;20538;-78
2021/07/06 04:25:13;;;;;;;2.50;1.20;;;19.10;99.90;;;;;;5029649;28;20453;-79
2021/07/06 04:27:42;;;;;;;1.20;1.10;;;19.10;99.90;;;;;;5028087;28;20551;-78
2021/07/06 04:30:12;;;;;;;1.20;1.10;;;19.10;99.90;;;;;;5031103;28;20456;-80
2021/07/06 04:32:40;;;;;;;1.20;1.10;;;19.10;99.90;;;;;;5029546;28;20581;-70
2021/07/06 04:35:09;;;;;;;1.50;1.00;;;19.10;99.90;;;;;;5024031;28;20455;-70
2021/07/06 04:37:38;;;;;;;1.27;1.10;;;19.10;1.00;;;;;;5028329;28;20857;-72
2021/07/06 04:40:08;;;;;;;1.40;1.10;;;19.00;1.00;;;;;;5023776;28;20488;-72
2021/07/06 04:42:36;;;;;;;1.47;1.30;;;19.00;1.00;;;;;;5033075;28;20446;-72
2021/07/06 04:45:05;;;;;;;2.03;1.17;;;18.90;1.00;;;;;;5029942;28;20462;-72
2021/07/06 04:47:33;;;;;;;1.40;1.30;;;18.90;99.90;;;;;;5027200;28;21011;-72
2021/07/06 04:50:02;;;;;;;1.40;1.30;;;18.90;99.90;;;;;;5029611;28;20447;-72
2021/07/06 04:52:30;;;;;;;1.70;1.30;;;19.00;1.00;;;;;;5026489;28;20521;-71
2021/07/06 04:55:00;;;;;;;1.70;1.60;;;19.00;99.90;;;;;;5029060;28;20467;-72
2021/07/06 04:57:28;;;;;;;1.30;1.20;;;19.00;1.00;;;;;;5021308;28;20463;-74
2021/07/06 04:59:56;;;;;;;2.80;1.93;;;19.00;99.90;;;;;;5028855;28;20517;-72
2021/07/06 05:02:24;;;;;;;1.80;1.60;;;19.10;1.00;;;;;;5027355;28;20553;-72
2021/07/06 05:04:52;;;;;;;1.37;1.27;;;19.10;99.90;;;;;;5027194;28;20460;-72
2021/07/06 05:07:21;;;;;;;1.30;1.00;;;19.10;46.70;;;;;;5026406;28;20452;-80
2021/07/06 05:09:49;;;;;;;1.20;1.10;;;19.20;12.10;;;;;;5028567;28;20468;-79
2021/07/06 05:12:19;;;;;;;1.20;1.10;;;19.30;1.00;;;;;;5023120;28;20509;-79
2021/07/06 05:14:47;;;;;;;1.13;1.03;;;19.40;99.90;;;;;;5025362;28;20459;-79
2021/07/06 05:17:15;;;;;;;1.20;1.10;;;19.40;99.90;;;;;;5028487;28;20459;-79
2021/07/06 05:19:43;;;;;;;1.17;1.07;;;19.50;99.90;;;;;;5024933;28;21011;-79
2021/07/06 05:22:11;;;;;;;1.40;1.30;;;19.50;99.90;;;;;;5028953;28;20947;-80
2021/07/06 05:24:39;;;;;;;1.63;0.90;;;19.50;99.90;;;;;;5032317;28;20525;-80
2021/07/06 05:27:08;;;;;;;1.20;1.07;;;19.60;99.90;;;;;;5030461;28;20463;-79
2021/07/06 05:29:37;;;;;;;2.27;0.87;;;19.70;99.90;;;;;;5030241;28;20494;-79
2021/07/06 05:32:06;;;;;;;1.17;1.07;;;19.80;99.90;;;;;;5030681;28;20506;-80
2021/07/06 05:34:35;;;;;;;1.37;1.27;;;19.90;40.20;;;;;;5030836;28;20495;-79
2021/07/06 05:37:04;;;;;;;1.20;1.10;;;19.80;1.00;;;;;;5029782;28;20456;-79
2021/07/06 05:39:32;;;;;;;1.00;1.00;;;19.90;1.00;;;;;;5026438;28;20490;-79
2021/07/06 05:42:00;;;;;;;1.00;0.90;;;19.90;1.00;;;;;;5019770;28;20455;-80
2021/07/06 05:44:28;;;;;;;1.03;0.90;;;19.90;1.00;;;;;;5026600;28;20487;-80
2021/07/06 05:46:58;;;;;;;1.20;1.10;;;19.90;97.50;;;;;;5030888;28;20862;-79
2021/07/06 05:49:26;;;;;;;1.40;1.20;;;19.90;1.00;;;;;;5030614;28;20464;-79
2021/07/06 05:51:54;;;;;;;3.40;1.40;;;19.90;1.00;;;;;;5026984;28;20486;-77
2021/07/06 05:54:22;;;;;;;2.57;1.07;;;20.00;1.00;;;;;;5039200;28;20484;-78
2021/07/06 05:56:50;;;;;;;1.17;1.07;;;20.00;1.00;;;;;;5026178;28;20463;-78
2021/07/06 05:59:18;;;;;;;1.00;0.87;;;20.00;1.00;;;;;;5031049;28;20448;-76
2021/07/06 06:01:46;;;;;;;1.10;1.00;;;20.10;99.90;;;;;;5025302;28;21012;-75
2021/07/06 06:04:16;;;;;;;2.10;1.40;;;20.20;45.70;;;;;;5010814;28;20473;-77
2021/07/06 06:06:46;;;;;;;2.60;1.43;;;20.30;1.00;;;;;;5024133;28;20478;-77
2021/07/06 06:09:14;;;;;;;1.73;1.10;;;20.30;1.00;;;;;;5028950;28;20903;-78
2021/07/06 06:11:42;;;;;;;2.20;1.43;;;20.30;1.00;;;;;;5029416;28;20457;-78
2021/07/06 06:14:11;;;;;;;2.53;1.30;;;20.30;1.00;;;;;;5027144;28;20488;-78
2021/07/06 06:16:41;;;;;;;1.43;1.17;;;20.40;1.00;;;;;;5030008;28;20493;-77
2021/07/06 06:19:10;;;;;;;1.33;1.07;;;20.50;1.00;;;;;;5029342;28;20614;-77
2021/07/06 06:21:39;;;;;;;0.97;0.97;;;20.50;1.00;;;;;;5029422;28;20476;-78
2021/07/06 06:24:07;;;;;;;1.27;1.10;;;20.60;1.00;;;;;;5028820;28;20833;-77
2021/07/06 06:26:35;;;;;;;1.00;1.00;;;20.50;1.00;;;;;;5030770;28;20524;-76
2021/07/06 06:29:04;;;;;;;1.17;1.00;;;20.60;1.00;;;;;;5029075;28;20451;-77
2021/07/06 06:31:32;;;;;;;0.90;0.90;;;20.70;1.00;;;;;;5030106;28;20935;-77
2021/07/06 06:34:00;;;;;;;1.50;1.10;;;20.80;1.00;;;;;;5028202;28;20590;-76
2021/07/06 06:36:29;;;;;;;1.20;0.90;;;20.80;1.00;;;;;;5028844;28;20956;-78
2021/07/06 06:39:00;;;;;;;3.17;1.27;;;20.90;99.90;;;;;;5027021;28;20484;-80
2021/07/06 06:41:29;;;;;;;1.20;1.10;;;20.80;99.90;;;;;;5031540;28;20915;-79
2021/07/06 06:43:57;;;;;;;1.00;1.00;;;20.90;99.90;;;;;;5029634;28;20520;-79
2021/07/06 06:46:25;;;;;;;1.63;0.90;;;21.00;99.90;;;;;;5027966;28;20460;-79
2021/07/06 06:48:54;;;;;;;2.50;0.93;;;21.00;99.90;;;;;;5030335;28;20463;-76
2021/07/06 06:51:22;;;;;;;1.00;0.90;;;21.00;99.90;;;;;;5033113;28;20484;-78
2021/07/06 06:53:50;;;;;;;2.40;0.87;;;21.10;99.90;;;;;;5030406;28;20474;-78
2021/07/06 06:56:20;;;;;;;1.03;1.00;;;21.20;99.90;;;;;;5027036;28;20456;-77
2021/07/06 06:58:48;;;;;;;1.20;1.10;;;21.20;99.90;;;;;;5038026;28;20456;-78
2021/07/06 07:01:16;;;;;;;1.37;1.00;;;21.30;99.90;;;;;;5030312;28;20491;-77
2021/07/06 07:03:44;;;;;;;1.13;0.90;;;21.40;99.90;;;;;;5028813;28;20972;-76
2021/07/06 07:06:13;;;;;;;1.40;0.87;;;21.50;99.90;;;;;;5019267;28;20457;-77
2021/07/06 07:08:41;;;;;;;1.47;0.90;;;21.60;99.90;;;;;;5028450;28;21515;-76
2021/07/06 07:11:09;;;;;;;1.33;0.90;;;21.70;99.90;;;;;;5029879;28;20450;-76
2021/07/06 07:13:38;;;;;;;1.80;0.90;;;21.80;99.90;;;;;;5027018;28;20483;-77
2021/07/06 07:16:06;;;;;;;0.80;0.80;;;21.80;99.90;;;;;;5029528;28;20462;-76
2021/07/06 07:18:35;;;;;;;0.97;0.83;;;21.80;99.90;;;;;;5029981;28;20543;-77
2021/07/06 07:21:03;;;;;;;1.27;1.10;;;21.90;99.90;;;;;;5028060;28;20990;-79
2021/07/06 07:23:31;;;;;;;0.80;0.80;;;22.00;59.80;;;;;;5029819;28;20539;-77
2021/07/06 07:25:59;;;;;;;0.70;0.70;;;21.90;1.00;;;;;;5028849;28;20453;-79
2021/07/06 07:28:27;;;;;;;5.00;0.97;;;21.90;1.00;;;;;;5034816;28;20493;-77
2021/07/06 07:30:57;;;;;;;0.77;0.73;;;21.90;1.00;;;;;;5032774;28;20492;-79
2021/07/06 07:33:27;;;;;;;1.60;0.80;;;22.00;1.00;;;;;;5029020;28;20490;-79
2021/07/06 07:35:55;;;;;;;1.00;0.90;;;22.00;1.00;;;;;;5031386;28;20479;-80
2021/07/06 07:38:24;;;;;;;1.20;1.10;;;22.00;1.00;;;;;;5031253;28;20553;-77
2021/07/06 07:40:53;;;;;;;0.80;0.80;;;22.10;1.00;;;;;;5032398;28;20498;-78
2021/07/06 07:43:21;;;;;;;0.80;0.80;;;22.10;1.00;;;;;;5031836;28;20886;-78
2021/07/06 07:45:49;;;;;;;1.33;0.90;;;22.10;1.00;;;;;;5033500;28;20788;-79
2021/07/06 07:48:19;;;;;;;0.80;0.80;;;22.20;1.00;;;;;;5032721;28;20454;-79
2021/07/06 07:50:47;;;;;;;1.00;0.90;;;22.20;1.00;;;;;;5032975;28;20446;-77
2021/07/06 07:53:15;;;;;;;1.07;0.93;;;22.30;1.00;;;;;;5033319;28;20989;-77
2021/07/06 07:55:43;;;;;;;1.10;1.10;;;22.30;1.00;;;;;;5032807;28;20462;-79
2021/07/06 07:58:11;;;;;;;0.80;0.80;;;22.30;1.00;;;;;;5034091;28;20506;-77
2021/07/06 08:00:40;;;;;;;0.90;0.90;;;22.30;1.00;;;;;;5033829;28;20466;-78
2021/07/06 08:03:08;;;;;;;0.97;0.90;;;22.20;1.00;;;;;;5032911;28;20570;-79
2021/07/06 08:05:37;;;;;;;0.87;0.83;;;22.20;1.00;;;;;;5030343;28;20510;-79
2021/07/06 08:08:05;;;;;;;1.10;0.70;;;22.30;1.00;;;;;;5031676;28;20458;-79
2021/07/06 08:10:33;;;;;;;2.97;1.00;;;22.30;1.00;;;;;;5032713;28;20984;-78
2021/07/06 08:13:02;;;;;;;1.53;0.80;;;22.40;1.00;;;;;;5033404;28;20478;-78
2021/07/06 08:15:30;;;;;;;0.83;0.83;;;22.50;1.00;;;;;;5032083;28;20493;-78
2021/07/06 08:17:58;;;;;;;0.80;0.70;;;22.60;1.00;;;;;;5032620;28;20486;-79
2021/07/06 08:20:26;;;;;;;1.30;1.00;;;22.60;1.00;;;;;;5030756;28;20518;-78
2021/07/06 08:22:57;;;;;;;1.00;0.80;;;22.70;1.00;;;;;;5032550;28;20487;-79
2021/07/06 08:25:26;;;;;;;0.90;0.80;;;22.70;1.00;;;;;;5030688;28;20501;-78
2021/07/06 08:27:54;;;;;;;0.90;0.90;;;22.70;1.00;;;;;;5031034;28;20508;-77
2021/07/06 08:30:22;;;;;;;0.70;0.70;;;22.80;1.00;;;;;;5029062;28;20863;-78
2021/07/06 08:32:50;;;;;;;0.80;0.80;;;22.80;10.20;;;;;;5031158;28;20491;-79
2021/07/06 08:35:20;;;;;;;2.33;0.80;;;22.90;1.00;;;;;;5029369;28;20821;-77
2021/07/06 08:37:48;;;;;;;1.90;0.90;;;23.00;1.00;;;;;;5031403;28;20803;-77
2021/07/06 08:40:18;;;;;;;1.07;0.90;;;23.00;1.00;;;;;;5014975;28;20487;-78
2021/07/06 08:42:47;;;;;;;0.87;0.87;;;23.00;1.00;;;;;;5030820;28;20550;-76
2021/07/06 08:45:17;;;;;;;1.10;0.90;;;23.00;1.00;;;;;;5028178;28;20486;-81
2021/07/06 08:47:46;;;;;;;1.40;0.70;;;23.10;1.00;;;;;;5027793;28;20911;-79
2021/07/06 08:50:15;;;;;;;1.23;0.97;;;23.20;1.00;;;;;;5029915;28;20517;-80
2021/07/06 08:52:45;;;;;;;1.90;1.00;;;23.20;1.00;;;;;;5031007;28;20487;-80
2021/07/06 08:55:14;;;;;;;1.00;1.00;;;23.30;1.00;;;;;;5028511;28;20986;-82
2021/07/06 08:57:45;;;;;;;6.90;1.40;;;23.30;1.00;;;;;;5032128;28;20435;-79
2021/07/06 09:00:15;;;;;;;1.03;0.90;;;23.30;1.00;;;;;;5027615;28;20463;-81
2021/07/06 09:02:59;;;;;;;0.80;0.77;;;23.40;1.00;;;;;;5030243;28;20533;-80
2021/07/06 09:05:28;;;;;;;2.20;0.90;;;23.40;1.00;;;;;;5027437;28;20463;-80
2021/07/06 09:07:56;;;;;;;1.10;1.00;;;23.40;1.00;;;;;;5030928;28;20452;-80
2021/07/06 09:10:25;;;;;;;1.73;1.00;;;23.40;1.00;;;;;;5026618;28;20488;-81
2021/07/06 09:12:55;;;;;;;1.90;0.90;;;23.40;1.00;;;;;;5044641;28;20518;-79
2021/07/06 09:15:28;;;;;;;1.73;1.00;;;23.40;1.00;;;;;;5028462;28;20579;-79
2021/07/06 09:18:14;;;;;;;1.37;1.00;;;23.50;1.00;;;;;;5029731;28;20960;-81
2021/07/06 09:20:45;;;;;;;0.80;0.80;;;23.50;1.00;;;;;;5029632;28;20459;-78
2021/07/06 09:23:25;;;;;;;1.00;0.90;;;23.50;1.00;;;;;;5029769;28;20491;-84
2021/07/06 09:26:08;;;;;;;2.43;1.07;;;23.40;1.00;;;;;;5024075;28;20943;-81
2021/07/06 09:28:40;;;;;;;1.07;0.97;;;23.30;1.00;;;;;;5024457;28;20982;-81
2021/07/06 09:31:16;;;;;;;1.17;1.07;;;23.40;1.00;;;;;;5028044;28;20448;-82
2021/07/06 09:33:52;;;;;;;1.10;1.00;;;23.40;1.00;;;;;;5028982;28;21157;-81
2021/07/06 09:36:35;;;;;;;1.10;1.00;;;23.30;1.00;;;;;;5028842;28;20502;-81
2021/07/06 09:39:15;;;;;;;1.10;1.00;;;23.10;1.00;;;;;;5028425;28;20455;-81
2021/07/06 09:41:53;;;;;;;1.20;1.10;;;23.00;1.00;;;;;;5029824;28;20566;-76
2021/07/06 09:44:28;;;;;;;1.60;1.20;;;23.00;1.00;;;;;;5026732;28;20845;-78
2021/07/06 09:47:01;;;;;;;1.63;1.03;;;23.00;16.60;;;;;;5028596;28;20452;-81
2021/07/06 09:49:31;;;;;;;1.53;0.97;;;23.00;13.30;;;;;;5028530;28;20486;-78
2021/07/06 09:52:10;;;;;;;1.47;1.37;;;22.90;1.00;;;;;;5028539;28;20448;-78
2021/07/06 09:54:41;;;;;;;3.17;2.53;;;23.00;19.60;;;;;;5024029;28;20487;-79
2021/07/06 09:57:22;;;;;;;3.00;2.70;;;23.00;1.00;;;;;;5027343;28;21027;-77
2021/07/06 10:00:07;;;;;;;1.70;1.60;;;23.10;1.00;;;;;;5029230;28;20462;-78
2021/07/06 10:02:37;;;;;;;3.03;1.50;;;23.10;1.00;;;;;;5028205;28;20559;-78
2021/07/06 10:05:08;;;;;;;13.53;6.90;;;23.10;1.00;;;;;;5019307;28;20459;-81
2021/07/06 10:07:39;;;;;;;1.50;1.00;;;23.10;1.00;;;;;;5022723;28;20456;-80
2021/07/06 10:10:10;;;;;;;1.77;1.10;;;23.10;1.00;;;;;;5029597;28;20948;-84
2021/07/06 10:12:39;;;;;;;1.90;0.90;;;23.10;1.00;;;;;;5026169;28;20472;-81
2021/07/06 10:15:11;;;;;;;1.33;0.80;;;23.10;1.00;;;;;;5028011;28;20444;-78
2021/07/06 10:17:48;;;;;;;0.83;0.83;;;23.10;1.00;;;;;;5027356;28;20447;-80
2021/07/06 10:20:20;;;;;;;1.00;0.70;;;23.10;1.00;;;;;;5029055;28;20449;-80
2021/07/06 10:22:49;;;;;;;1.10;1.00;;;23.10;1.00;;;;;;5017249;28;20524;-81
2021/07/06 10:25:23;;;;;;;2.03;0.73;;;23.10;1.00;;;;;;5027618;28;20452;-80
2021/07/06 10:27:53;;;;;;;0.60;0.60;;;23.10;1.00;;;;;;5021114;28;20453;-82
2021/07/06 10:30:26;;;;;;;0.80;0.50;;;23.10;1.00;;;;;;5023118;28;20875;-80
2021/07/06 10:32:56;;;;;;;0.73;0.50;;;23.10;1.00;;;;;;5029007;28;20510;-82
2021/07/06 10:35:45;;;;;;;0.60;0.47;;;23.10;1.00;;;;;;5027043;28;20917;-83
2021/07/06 10:38:42;;;;;;;1.00;0.50;;;23.10;1.00;;;;;;5026779;28;20452;-80
2021/07/06 10:41:14;;;;;;;0.60;0.60;;;23.10;1.00;;;;;;5021112;28;20514;-78
2021/07/06 10:43:57;;;;;;;0.50;0.50;;;23.10;1.00;;;;;;5028137;28;20574;-79
2021/07/06 10:46:45;;;;;;;0.70;0.40;;;23.10;1.00;;;;;;5026066;28;20447;-79
2021/07/06 10:49:18;;;;;;;0.47;0.40;;;23.10;1.00;;;;;;5029053;28;20487;-77
2021/07/06 10:51:50;;;;;;;0.50;0.50;;;23.00;1.00;;;;;;5027341;28;20547;-78
2021/07/06 10:54:27;;;;;;;0.40;0.40;;;23.00;1.00;;;;;;5025988;28;20485;-78
2021/07/06 10:56:57;;;;;;;0.50;0.50;;;23.00;1.00;;;;;;5024555;28;20459;-79
2021/07/06 10:59:27;;;;;;;0.50;0.50;;;23.00;1.00;;;;;;5028126;28;20510;-78
2021/07/06 11:02:02;;;;;;;0.60;0.50;;;23.00;1.00;;;;;;5027907;28;20803;-78
2021/07/06 11:05:07;;;;;;;1.03;0.50;;;23.00;1.00;;;;;;5031151;28;20524;-79
2021/07/06 11:07:52;;;;;;;1.77;0.60;;;23.00;1.00;;;;;;5029548;28;20509;-78
2021/07/06 11:10:50;;;;;;;0.50;0.50;;;23.00;1.00;;;;;;5012491;28;20531;-78
2021/07/06 11:13:36;;;;;;;0.50;0.47;;;23.00;1.00;;;;;;5031031;28;20882;-79
2021/07/06 11:16:35;;;;;;;0.50;0.50;;;23.00;1.00;;;;;;5030304;28;20539;-78
2021/07/06 11:19:32;;;;;;;0.67;0.50;;;23.00;1.00;;;;;;5032035;28;21065;-78
2021/07/06 11:22:09;;;;;;;0.40;0.40;;;23.00;1.00;;;;;;5030003;28;20505;-79
2021/07/06 11:24:40;;;;;;;0.40;0.40;;;23.00;1.00;;;;;;5030605;28;20510;-80
2021/07/06 11:27:09;;;;;;;0.50;0.40;;;23.10;1.00;;;;;;5026897;28;20444;-79
2021/07/06 11:29:38;;;;;;;0.50;0.40;;;23.10;1.00;;;;;;5037647;28;20816;-80
2021/07/06 11:32:09;;;;;;;0.50;0.50;;;23.00;1.00;;;;;;5022001;28;20446;-79
2021/07/06 11:34:40;;;;;;;0.40;0.40;;;23.10;1.00;;;;;;5027766;28;20467;-78
2021/07/06 11:37:11;;;;;;;1.33;0.40;;;23.00;1.00;;;;;;5026326;28;20461;-78
2021/07/06 11:39:40;;;;;;;1.00;0.50;;;23.00;1.00;;;;;;5027213;28;20459;-78
2021/07/06 11:42:08;;;;;;;0.60;0.60;;;23.00;1.00;;;;;;5031452;28;20847;-78
2021/07/06 11:44:37;;;;;;;0.70;0.40;;;23.00;1.00;;;;;;5029442;28;21012;-79
2021/07/06 11:47:12;;;;;;;0.50;0.50;;;23.10;1.00;;;;;;5030791;28;20849;-79
2021/07/06 11:49:45;;;;;;;0.43;0.43;;;23.10;1.00;;;;;;5027800;28;20529;-79
2021/07/06 11:52:13;;;;;;;11.53;2.10;;;23.00;1.00;;;;;;5027481;28;20456;-80
2021/07/06 11:54:44;;;;;;;0.40;0.40;;;23.10;1.00;;;;;;5025191;28;20460;-79
2021/07/06 11:57:13;;;;;;;0.90;0.50;;;23.10;1.00;;;;;;5028560;28;20498;-79
2021/07/06 11:59:41;;;;;;;0.50;0.50;;;23.10;1.00;;;;;;5025008;28;20463;-79
2021/07/06 12:02:12;;;;;;;0.40;0.40;;;23.10;1.00;;;;;;5031740;28;20963;-79
2021/07/06 12:04:40;;;;;;;0.40;0.40;;;23.10;1.00;;;;;;5023910;28;21164;-78
2021/07/06 12:07:11;;;;;;;0.40;0.40;;;23.10;1.00;;;;;;5028951;28;20985;-79
2021/07/06 12:09:40;;;;;;;0.50;0.50;;;23.20;1.00;;;;;;5022907;28;20462;-79
2021/07/06 12:12:13;;;;;;;0.50;0.50;;;23.20;1.00;;;;;;5034798;28;20502;-78
2021/07/06 12:14:50;;;;;;;1.47;0.40;;;23.20;1.00;;;;;;5019820;28;20485;-78
2021/07/06 12:17:29;;;;;;;1.80;0.60;;;23.30;1.00;;;;;;5023327;28;20444;-79
2021/07/06 12:19:59;;;;;;;2.10;0.60;;;23.30;1.00;;;;;;5029856;28;20459;-78
2021/07/06 12:22:29;;;;;;;0.53;0.50;;;23.30;1.00;;;;;;5026948;28;20453;-78
2021/07/06 12:24:59;;;;;;;1.20;0.80;;;23.30;1.00;;;;;;5025029;28;20651;-77
2021/07/06 12:27:28;;;;;;;0.53;0.53;;;23.30;1.00;;;;;;5029296;28;20970;-80
2021/07/06 12:30:02;;;;;;;0.50;0.50;;;23.30;1.00;;;;;;5032712;28;20460;-80
2021/07/06 12:32:30;;;;;;;0.60;0.53;;;23.20;1.00;;;;;;5030025;28;20486;-79
2021/07/06 12:34:59;;;;;;;0.50;0.50;;;23.10;1.00;;;;;;5029277;28;20453;-79
2021/07/06 12:37:30;;;;;;;1.53;0.60;;;23.10;1.00;;;;;;5023990;28;20476;-80
2021/07/06 12:40:10;;;;;;;0.60;0.60;;;23.10;1.00;;;;;;5027732;28;20463;-79
2021/07/06 12:42:40;;;;;;;0.60;0.60;;;23.00;1.00;;;;;;5028838;28;20461;-84
2021/07/06 12:45:11;;;;;;;0.90;0.60;;;23.10;1.00;;;;;;5029456;28;20476;-81
2021/07/06 12:47:41;;;;;;;0.50;0.50;;;23.10;1.00;;;;;;5026600;28;20463;-81
2021/07/06 12:50:15;;;;;;;0.50;0.50;;;23.00;1.00;;;;;;5024944;28;20483;-79
2021/07/06 12:52:46;;;;;;;0.70;0.67;;;23.10;1.00;;;;;;5028206;28;20487;-78
2021/07/06 12:55:17;;;;;;;0.50;0.50;;;23.10;1.00;;;;;;5029814;28;20454;-80
2021/07/06 12:57:47;;;;;;;0.80;0.67;;;23.10;1.00;;;;;;5026739;28;20441;-79
2021/07/06 13:00:18;;;;;;;0.97;0.60;;;23.10;1.00;;;;;;5028410;28;20459;-78
2021/07/06 13:02:51;;;;;;;0.70;0.57;;;23.20;1.00;;;;;;5026498;28;20543;-80
2021/07/06 13:05:27;;;;;;;0.73;0.70;;;23.20;1.00;;;;;;5042757;28;21015;-79
2021/07/06 13:07:57;;;;;;;1.07;0.80;;;23.20;1.00;;;;;;5028161;28;20547;-79
2021/07/06 13:10:26;;;;;;;1.73;0.70;;;23.20;1.00;;;;;;5020624;28;20452;-80